Time;durP1;ratioP1;P1;durP2;ratioP2;P2;SDS_P1;SDS_P2;PMS_P1;PMS_P2;Temp;Humidity;BMP_temperature;BMP_pressure;BME280_temperature;BME280_humidity;BME280_pressure;Samples;Min_cycle;Max_cycle;Signal;HPM_P1;HPM_P2
2023/01/13 00:00:49;;;;;;;2.20;1.03;;;10.30;99.90;;;;;;5012667;28;20064;-61
2023/01/13 00:03:15;;;;;;;3.00;1.03;;;10.20;99.90;;;;;;5012383;28;20387;-61
2023/01/13 00:05:40;;;;;;;1.63;0.70;;;10.20;99.90;;;;;;5012074;28;20022;-61
2023/01/13 00:08:06;;;;;;;2.20;0.70;;;10.20;99.90;;;;;;5012047;28;20364;-61
2023/01/13 00:10:33;;;;;;;1.43;0.70;;;10.30;99.90;;;;;;5012487;28;20042;-61
2023/01/13 00:13:00;;;;;;;4.07;1.13;;;10.30;99.90;;;;;;5012099;28;20062;-61
2023/01/13 00:15:26;;;;;;;3.37;1.00;;;10.30;99.90;;;;;;5011976;28;20037;-61
2023/01/13 00:17:51;;;;;;;1.87;0.73;;;10.30;99.90;;;;;;5011739;28;20040;-61
2023/01/13 00:20:17;;;;;;;3.33;0.97;;;10.30;99.90;;;;;;5012089;28;20029;-62
2023/01/13 00:22:43;;;;;;;2.70;0.90;;;10.30;99.90;;;;;;5011904;28;20120;-61
2023/01/13 00:25:09;;;;;;;2.73;0.73;;;10.20;99.90;;;;;;5011776;28;20022;-61
2023/01/13 00:27:35;;;;;;;4.77;1.13;;;10.20;99.90;;;;;;5011712;28;20112;-61
2023/01/13 00:30:00;;;;;;;4.40;0.90;;;10.20;99.90;;;;;;5012044;28;20030;-61
2023/01/13 00:32:27;;;;;;;5.53;0.70;;;10.20;99.90;;;;;;5010525;28;20034;-61
2023/01/13 00:34:52;;;;;;;2.30;0.70;;;10.30;99.90;;;;;;5011488;28;20103;-61
2023/01/13 00:37:18;;;;;;;3.93;0.77;;;10.20;99.90;;;;;;5011458;28;20062;-61
2023/01/13 00:39:44;;;;;;;4.70;0.90;;;10.30;99.90;;;;;;5011614;28;20125;-62
2023/01/13 00:44:55;;;;;;;5.37;1.17;;;10.20;99.90;;;;;;5010041;28;20454;-61
2023/01/13 00:47:22;;;;;;;5.30;1.33;;;10.30;99.90;;;;;;5011471;28;20088;-61
2023/01/13 00:49:48;;;;;;;5.53;0.80;;;10.20;99.90;;;;;;5011296;28;20434;-61
2023/01/13 00:52:14;;;;;;;6.20;0.70;;;10.20;99.90;;;;;;5011569;28;20125;-61
2023/01/13 00:54:40;;;;;;;9.27;1.57;;;10.30;99.90;;;;;;5011317;28;20036;-61
2023/01/13 00:57:06;;;;;;;6.97;1.20;;;10.30;99.90;;;;;;5011328;28;20034;-61
2023/01/13 00:59:32;;;;;;;4.97;0.80;;;10.20;99.90;;;;;;5011292;28;20109;-60
2023/01/13 01:01:58;;;;;;;3.93;0.83;;;10.20;99.90;;;;;;5011285;28;20025;-60
2023/01/13 01:04:23;;;;;;;6.13;1.00;;;10.10;99.90;;;;;;5011011;28;20021;-61
2023/01/13 01:06:49;;;;;;;5.73;1.00;;;10.10;99.90;;;;;;5010896;28;20136;-61
2023/01/13 01:09:16;;;;;;;5.60;1.00;;;10.10;99.90;;;;;;5010771;28;20026;-61
2023/01/13 01:11:42;;;;;;;7.83;1.20;;;10.10;99.90;;;;;;5010800;28;20091;-61
2023/01/13 01:14:10;;;;;;;9.57;1.27;;;10.20;99.90;;;;;;5011254;28;20113;-61
2023/01/13 01:16:38;;;;;;;8.38;1.20;;;10.10;99.90;;;;;;5010623;28;20045;-61
2023/01/13 01:19:04;;;;;;;7.93;1.27;;;10.10;99.90;;;;;;5011010;28;20514;-61
2023/01/13 01:21:30;;;;;;;5.77;1.03;;;10.10;99.90;;;;;;5011315;28;20030;-60
2023/01/13 01:24:00;;;;;;;6.27;1.30;;;10.10;99.90;;;;;;5010760;28;20025;-60
2023/01/13 01:26:27;;;;;;;7.93;1.63;;;10.00;99.90;;;;;;5010832;28;20503;-60
2023/01/13 01:28:54;;;;;;;4.53;0.97;;;10.00;99.90;;;;;;5010987;28;20399;-60
2023/01/13 01:31:31;;;;;;;7.70;1.80;;;10.00;99.90;;;;;;5010851;28;20026;-60
2023/01/13 01:33:57;;;;;;;16.17;2.17;;;9.90;99.90;;;;;;5010812;28;20049;-60
2023/01/13 01:36:28;;;;;;;8.30;1.50;;;9.90;99.90;;;;;;5010473;28;20034;-60
2023/01/13 01:38:57;;;;;;;10.33;1.53;;;9.90;99.90;;;;;;5010781;28;20088;-60
2023/01/13 01:41:25;;;;;;;9.17;1.60;;;10.00;99.90;;;;;;5010968;28;20036;-60
2023/01/13 01:44:03;;;;;;;8.43;1.50;;;10.00;99.90;;;;;;5010403;28;20026;-60
2023/01/13 01:46:37;;;;;;;10.93;1.77;;;9.90;99.90;;;;;;5010481;28;20490;-60
2023/01/13 01:49:15;;;;;;;13.33;1.80;;;9.90;99.90;;;;;;5010626;28;20038;-60
2023/01/13 01:51:52;;;;;;;8.43;1.30;;;9.90;99.90;;;;;;5010692;28;20041;-60
2023/01/13 01:54:29;;;;;;;15.43;2.50;;;9.90;99.90;;;;;;5010365;28;20029;-60
2023/01/13 01:56:55;;;;;;;12.30;1.73;;;9.80;99.90;;;;;;5010246;28;20037;-60
2023/01/13 01:59:26;;;;;;;9.68;1.45;;;9.70;99.90;;;;;;5009213;28;20410;-60
2023/01/13 02:01:54;;;;;;;12.33;1.83;;;9.80;99.90;;;;;;5010665;28;20550;-59
2023/01/13 02:04:26;;;;;;;12.67;1.70;;;9.70;99.90;;;;;;5010360;28;20053;-60
2023/01/13 02:06:53;;;;;;;14.27;1.80;;;9.70;99.90;;;;;;5010271;28;20205;-59
2023/01/13 02:09:19;;;;;;;8.27;1.60;;;9.60;99.90;;;;;;5010484;28;20494;-60
2023/01/13 02:14:29;;;;;;;17.07;2.37;;;9.50;99.90;;;;;;5010284;28;20041;-60
2023/01/13 02:17:14;;;;;;;13.17;1.90;;;9.50;99.90;;;;;;5009871;28;20073;-59
2023/01/13 02:19:58;;;;;;;10.93;1.90;;;9.50;99.90;;;;;;5010406;28;20029;-59
2023/01/13 02:22:24;;;;;;;16.70;2.10;;;9.50;99.90;;;;;;5013079;28;20034;-60
2023/01/13 02:25:05;;;;;;;13.73;1.60;;;9.50;99.90;;;;;;5013917;28;20111;-59
2023/01/13 02:27:52;;;;;;;18.50;1.80;;;9.40;99.90;;;;;;5013936;28;20100;-59
2023/01/13 02:33:33;;;;;;;12.27;1.83;;;9.40;99.90;;;;;;5014155;28;20217;-59
2023/01/13 02:36:06;;;;;;;13.07;2.03;;;9.40;99.90;;;;;;5013804;28;20033;-59
2023/01/13 02:38:38;;;;;;;17.60;2.27;;;9.40;99.90;;;;;;5013888;28;20440;-59
2023/01/13 02:44:05;;;;;;;10.70;1.83;;;9.40;99.90;;;;;;5013628;28;20348;-59
2023/01/13 02:46:58;;;;;;;19.13;2.40;;;9.40;99.90;;;;;;5012280;28;20446;-59
2023/01/13 02:49:31;;;;;;;19.57;2.77;;;9.30;99.90;;;;;;5013804;28;20038;-59
2023/01/13 02:52:04;;;;;;;12.37;2.30;;;9.30;99.90;;;;;;5014109;28;20433;-59
2023/01/13 02:54:34;;;;;;;16.20;2.20;;;9.30;99.90;;;;;;5013500;28;20111;-59
2023/01/13 02:57:00;;;;;;;;;;;9.20;99.90;;;;;;5013670;28;20038;-60
2023/01/13 02:59:27;;;;;;;9.27;1.47;;;9.20;99.90;;;;;;5013465;28;20079;-59
2023/01/13 03:01:55;;;;;;;13.93;2.30;;;9.20;99.90;;;;;;5013635;28;20117;-59
2023/01/13 03:04:55;;;;;;;14.50;2.50;;;9.10;99.90;;;;;;5013477;28;20631;-59
2023/01/13 03:07:52;;;;;;;17.40;2.40;;;9.10;99.90;;;;;;5005462;28;20140;-59
2023/01/13 03:10:32;;;;;;;13.40;1.83;;;9.00;99.90;;;;;;5012712;28;20403;-59
2023/01/13 03:13:18;;;;;;;20.00;2.27;;;9.00;99.90;;;;;;5013303;28;20072;-60
2023/01/13 03:15:58;;;;;;;16.37;2.43;;;8.90;99.90;;;;;;5025956;23;20079;-60
2023/01/13 03:18:44;;;;;;;17.03;2.33;;;8.90;99.90;;;;;;5013071;28;20030;-60
2023/01/13 03:21:16;;;;;;;14.67;2.23;;;8.90;99.90;;;;;;5013243;28;20030;-59
2023/01/13 03:23:51;;;;;;;13.40;2.07;;;8.90;99.90;;;;;;5013112;28;20101;-59
2023/01/13 03:26:36;;;;;;;16.90;2.67;;;8.80;99.90;;;;;;5012990;28;20073;-59
2023/01/13 03:29:22;;;;;;;16.37;3.13;;;8.80;99.90;;;;;;5013095;28;20026;-60
2023/01/13 03:32:19;;;;;;;16.33;3.20;;;8.80;99.90;;;;;;5013155;28;20030;-60
2023/01/13 03:34:51;;;;;;;23.50;3.80;;;8.70;99.90;;;;;;5011857;28;20276;-59
2023/01/13 03:37:22;;;;;;;14.67;3.30;;;8.70;99.90;;;;;;5012601;28;20034;-60
2023/01/13 03:39:54;;;;;;;19.50;3.00;;;8.60;99.90;;;;;;5013071;28;20113;-59
2023/01/13 03:42:23;;;;;;;15.83;3.87;;;8.60;99.90;;;;;;5012846;28;20108;-57
2023/01/13 03:44:57;;;;;;;14.60;2.90;;;8.60;99.90;;;;;;5012467;28;20025;-59
2023/01/13 03:47:34;;;;;;;13.63;2.90;;;8.60;99.90;;;;;;5012595;28;20029;-59
2023/01/13 03:50:08;;;;;;;12.00;2.70;;;8.50;99.90;;;;;;5012738;28;20030;-60
2023/01/13 03:52:38;;;;;;;9.50;1.90;;;8.40;99.90;;;;;;5013051;28;20486;-60
2023/01/13 03:55:36;;;;;;;11.23;2.10;;;8.40;99.90;;;;;;5012166;28;20068;-59
2023/01/13 03:58:13;;;;;;;10.17;1.40;;;8.40;99.90;;;;;;5010416;28;20052;-60
2023/01/13 04:00:56;;;;;;;8.73;1.07;;;8.30;99.90;;;;;;5012505;28;20071;-60
2023/01/13 04:03:51;;;;;;;12.37;1.73;;;8.20;99.90;;;;;;5012323;28;20112;-60
2023/01/13 04:06:33;;;;;;;6.53;0.93;;;8.10;99.90;;;;;;5010067;28;20042;-60
2023/01/13 04:09:22;;;;;;;7.07;1.10;;;8.10;99.90;;;;;;5012465;28;20441;-60
2023/01/13 04:11:59;;;;;;;8.48;1.40;;;8.00;99.90;;;;;;5012355;28;20030;-59
2023/01/13 04:14:26;;;;;;;8.77;1.20;;;8.00;99.90;;;;;;5012028;28;20029;-59
2023/01/13 04:16:54;;;;;;;6.30;1.38;;;7.90;99.90;;;;;;5011799;28;20033;-59
2023/01/13 04:19:20;;;;;;;9.37;1.20;;;7.90;99.90;;;;;;5012101;28;20032;-59
2023/01/13 04:21:46;;;;;;;8.97;1.40;;;7.90;99.90;;;;;;5012179;28;20026;-59
2023/01/13 04:24:12;;;;;;;9.03;1.40;;;8.00;99.90;;;;;;5011756;28;20502;-59
2023/01/13 04:26:37;;;;;;;9.03;1.43;;;7.90;99.90;;;;;;5011773;28;20033;-59
2023/01/13 04:29:03;;;;;;;9.43;1.77;;;7.90;99.90;;;;;;5011978;28;20561;-59
2023/01/13 04:31:29;;;;;;;8.50;1.30;;;8.10;99.90;;;;;;5012077;28;20033;-59
2023/01/13 04:33:54;;;;;;;13.10;1.83;;;8.10;99.90;;;;;;5011838;28;20061;-59
2023/01/13 04:36:24;;;;;;;13.57;1.80;;;8.20;99.90;;;;;;5011564;28;20034;-60
2023/01/13 04:38:50;;;;;;;15.40;2.30;;;8.20;99.90;;;;;;5011764;28;20022;-59
2023/01/13 04:41:16;;;;;;;13.40;1.90;;;8.20;99.90;;;;;;5011714;28;20038;-60
2023/01/13 04:43:41;;;;;;;14.03;2.50;;;8.20;99.90;;;;;;5011401;28;20022;-60
2023/01/13 04:46:07;;;;;;;12.27;2.43;;;8.30;99.90;;;;;;5010257;28;20025;-58
2023/01/13 04:48:33;;;;;;;15.07;2.30;;;8.30;99.90;;;;;;5011323;28;20073;-58
2023/01/13 04:50:58;;;;;;;16.40;2.87;;;8.40;99.90;;;;;;5011595;28;20025;-58
2023/01/13 04:53:24;;;;;;;19.37;3.03;;;8.40;99.90;;;;;;5011309;28;20041;-58
2023/01/13 04:55:50;;;;;;;18.77;3.40;;;8.50;99.90;;;;;;5011667;28;20422;-59
2023/01/13 04:58:16;;;;;;;20.97;3.13;;;8.60;99.90;;;;;;5011134;28;20112;-59
2023/01/13 05:00:42;;;;;;;14.73;3.53;;;8.70;99.90;;;;;;5011477;28;20038;-59
2023/01/13 05:03:08;;;;;;;18.73;4.43;;;8.70;99.90;;;;;;5011501;28;20026;-59
2023/01/13 05:05:34;;;;;;;19.17;5.27;;;8.80;99.90;;;;;;5011204;28;20545;-59
2023/01/13 05:08:00;;;;;;;17.43;4.17;;;8.80;99.90;;;;;;5010999;28;20487;-59
2023/01/13 05:10:26;;;;;;;14.80;4.17;;;8.80;99.90;;;;;;5011453;28;20061;-59
2023/01/13 05:18:23;;;;;;;15.57;4.03;;;8.80;99.90;;;;;;5010819;28;20087;-59
2023/01/13 05:20:49;;;;;;;18.20;4.37;;;8.80;99.90;;;;;;5011015;28;20122;-59
2023/01/13 05:25:58;;;;;;;20.00;4.20;;;8.80;99.90;;;;;;5011116;28;20450;-58
2023/01/13 05:28:24;;;;;;;19.13;3.93;;;8.80;99.90;;;;;;5010882;28;20046;-59
2023/01/13 05:30:51;;;;;;;22.13;5.43;;;8.80;99.90;;;;;;5011021;28;20034;-59
2023/01/13 05:33:19;;;;;;;20.03;4.80;;;8.80;99.90;;;;;;5010923;28;20336;-59
2023/01/13 05:35:46;;;;;;;14.20;2.50;;;8.70;99.90;;;;;;5010921;28;20045;-59
2023/01/13 05:38:12;;;;;;;9.70;1.70;;;8.70;99.90;;;;;;5010865;28;20037;-59
2023/01/13 05:43:23;;;;;;;11.97;2.83;;;8.80;99.90;;;;;;5010643;28;20033;-59
2023/01/13 05:45:55;;;;;;;22.17;3.80;;;8.70;99.90;;;;;;5010703;28;20025;-60
2023/01/13 05:48:22;;;;;;;16.33;3.00;;;8.70;99.90;;;;;;5010615;28;20034;-59
2023/01/13 05:50:49;;;;;;;18.17;4.00;;;8.70;99.90;;;;;;5010701;28;20041;-60
2023/01/13 05:53:16;;;;;;;17.40;3.30;;;8.70;99.90;;;;;;5010691;28;20034;-60
2023/01/13 05:55:42;;;;;;;18.13;4.13;;;8.70;99.90;;;;;;5010386;28;20030;-60
2023/01/13 05:58:09;;;;;;;15.57;3.47;;;8.60;99.90;;;;;;5014377;28;20386;-60
2023/01/13 06:00:35;;;;;;;14.67;3.03;;;8.60;99.90;;;;;;5014800;28;20467;-60
2023/01/13 06:03:01;;;;;;;13.93;2.17;;;8.50;99.90;;;;;;5014864;28;20113;-60
2023/01/13 06:05:27;;;;;;;13.10;2.50;;;8.60;99.90;;;;;;5014537;28;20092;-59
2023/01/13 06:08:01;;;;;;;13.23;2.10;;;8.50;99.90;;;;;;5014336;28;20034;-59
2023/01/13 06:10:28;;;;;;;14.27;2.80;;;8.60;99.90;;;;;;5014452;28;20112;-59
2023/01/13 06:12:53;;;;;;;12.13;2.03;;;8.50;99.90;;;;;;5014514;28;20127;-59
2023/01/13 06:15:20;;;;;;;15.93;2.97;;;8.40;99.90;;;;;;5013985;28;20026;-57
2023/01/13 06:17:46;;;;;;;12.33;2.33;;;8.50;99.90;;;;;;5014113;28;20117;-59
2023/01/13 06:20:13;;;;;;;17.67;3.80;;;8.40;99.90;;;;;;5014224;28;20089;-60
2023/01/13 06:22:48;;;;;;;18.53;3.10;;;8.40;99.90;;;;;;5014223;28;20030;-59
2023/01/13 06:25:29;;;;;;;17.63;2.80;;;8.30;99.90;;;;;;5013703;28;20037;-59
2023/01/13 06:27:57;;;;;;;13.80;2.83;;;8.30;99.90;;;;;;5013972;28;20034;-59
2023/01/13 06:30:24;;;;;;;16.03;2.83;;;8.30;99.90;;;;;;5014058;28;20096;-60
2023/01/13 06:32:54;;;;;;;16.90;3.13;;;8.20;99.90;;;;;;5014215;28;20034;-59
2023/01/13 06:35:27;;;;;;;18.17;3.50;;;8.30;99.90;;;;;;5013749;28;20046;-60
2023/01/13 06:37:55;;;;;;;12.87;2.70;;;8.20;99.90;;;;;;5013604;28;20498;-60
2023/01/13 06:40:21;;;;;;;17.37;2.80;;;8.30;99.90;;;;;;5013970;28;20089;-60
2023/01/13 06:45:32;;;;;;;19.53;3.00;;;8.20;99.90;;;;;;5013761;28;20036;-60
2023/01/13 06:47:58;;;;;;;13.87;2.20;;;8.20;99.90;;;;;;5013600;28;20120;-59
2023/01/13 06:50:25;;;;;;;9.93;2.13;;;8.20;99.90;;;;;;5013847;28;20312;-60
2023/01/13 06:52:51;;;;;;;14.17;2.63;;;8.20;99.90;;;;;;5013843;28;20414;-60
2023/01/13 06:55:16;;;;;;;20.53;2.30;;;8.20;99.90;;;;;;5013524;28;20030;-60
2023/01/13 06:57:48;;;;;;;11.27;2.00;;;8.10;99.90;;;;;;5013375;28;20430;-58
2023/01/13 07:00:14;;;;;;;14.50;2.10;;;8.10;99.90;;;;;;5013823;28;20032;-59
2023/01/13 07:02:40;;;;;;;12.00;1.70;;;8.10;99.90;;;;;;5013487;28;20494;-59
2023/01/13 07:05:06;;;;;;;10.13;2.10;;;8.10;99.90;;;;;;5013739;28;20026;-59
2023/01/13 07:07:32;;;;;;;17.13;2.40;;;8.10;99.90;;;;;;5013337;28;20030;-60
2023/01/13 07:09:58;;;;;;;14.50;1.87;;;8.00;99.90;;;;;;5013541;28;20164;-60
2023/01/13 07:12:24;;;;;;;15.53;2.20;;;8.00;99.90;;;;;;5013344;28;20038;-60
2023/01/13 07:17:34;;;;;;;11.87;2.20;;;8.10;99.90;;;;;;5012888;28;20541;-59
2023/01/13 07:19:59;;;;;;;13.53;2.00;;;8.10;99.90;;;;;;5011836;28;20022;-60
2023/01/13 07:22:25;;;;;;;11.67;2.03;;;8.20;99.90;;;;;;5013294;28;20028;-58
2023/01/13 07:24:51;;;;;;;10.00;2.03;;;8.20;99.90;;;;;;5013122;28;20030;-59
2023/01/13 07:27:16;;;;;;;11.07;2.03;;;8.20;99.90;;;;;;5012825;28;20034;-59
2023/01/13 07:29:42;;;;;;;13.10;1.70;;;8.10;99.90;;;;;;5012986;28;20042;-58
2023/01/13 07:32:08;;;;;;;10.87;2.10;;;8.20;99.90;;;;;;5013152;28;20030;-59
2023/01/13 07:34:34;;;;;;;12.83;2.10;;;8.20;99.90;;;;;;5012777;28;20037;-60
2023/01/13 07:37:00;;;;;;;8.70;1.83;;;8.20;99.90;;;;;;5012737;28;20064;-59
2023/01/13 07:39:25;;;;;;;10.33;1.67;;;8.20;99.90;;;;;;5012787;28;20105;-59
2023/01/13 07:44:35;;;;;;;8.83;1.77;;;8.20;99.90;;;;;;5012603;28;20034;-60
2023/01/13 07:47:01;;;;;;;12.63;1.87;;;8.20;99.90;;;;;;5012573;28;20120;-60
2023/01/13 07:49:27;;;;;;;9.10;1.67;;;8.30;99.90;;;;;;5012644;28;20088;-60
2023/01/13 07:51:53;;;;;;;9.90;1.83;;;8.30;99.90;;;;;;5012774;28;20384;-60
2023/01/13 07:54:18;;;;;;;9.00;1.60;;;8.40;99.90;;;;;;5012328;28;20467;-60
2023/01/13 07:56:44;;;;;;;9.50;1.57;;;8.40;99.90;;;;;;5012216;28;20040;-60
2023/01/13 07:59:10;;;;;;;14.07;2.00;;;8.40;99.90;;;;;;5012609;28;20065;-60
2023/01/13 08:01:36;;;;;;;11.80;2.10;;;8.40;99.90;;;;;;5012484;28;20061;-57
2023/01/13 08:04:02;;;;;;;14.20;1.50;;;8.40;99.90;;;;;;5012251;28;20025;-60
2023/01/13 08:06:28;;;;;;;14.23;2.03;;;8.40;99.90;;;;;;5012164;28;20038;-60
2023/01/13 08:08:54;;;;;;;10.67;2.33;;;8.50;99.90;;;;;;5012233;28;20037;-60
2023/01/13 08:11:19;;;;;;;14.43;2.30;;;8.50;99.90;;;;;;5012751;28;20104;-59
2023/01/13 08:13:45;;;;;;;14.93;2.40;;;8.50;99.90;;;;;;5011903;28;20087;-58
2023/01/13 08:16:13;;;;;;;13.00;1.87;;;8.50;99.90;;;;;;5012019;28;20037;-59
2023/01/13 08:18:39;;;;;;;11.73;2.00;;;8.50;99.90;;;;;;5011424;28;20034;-59
2023/01/13 08:21:07;;;;;;;16.93;2.00;;;8.60;99.90;;;;;;5012151;28;20030;-59
2023/01/13 08:23:33;;;;;;;13.97;2.70;;;8.60;99.90;;;;;;5012125;28;20033;-60
2023/01/13 08:26:19;;;;;;;19.10;1.80;;;8.60;99.90;;;;;;5011826;28;20391;-60
2023/01/13 08:28:45;;;;;;;11.57;2.73;;;8.60;99.90;;;;;;5011631;28;20069;-60
2023/01/13 08:31:14;;;;;;;12.63;1.70;;;8.60;99.90;;;;;;5012131;28;20053;-60
2023/01/13 08:33:40;;;;;;;;;;;8.50;99.90;;;;;;5012233;28;20042;-59
2023/01/13 08:36:08;;;;;;;12.87;1.80;;;8.60;99.90;;;;;;5011717;28;19909;-60
2023/01/13 08:38:35;;;;;;;13.30;2.07;;;8.60;99.90;;;;;;5011157;28;20100;-59
2023/01/13 08:41:06;;;;;;;10.87;1.93;;;8.50;99.90;;;;;;5010674;28;20455;-60
2023/01/13 08:43:32;;;;;;;11.43;2.30;;;8.50;99.90;;;;;;5011464;28;20053;-59
2023/01/13 08:46:00;;;;;;;15.17;2.50;;;8.50;99.90;;;;;;5011749;28;20064;-59
2023/01/13 08:48:27;;;;;;;14.37;2.47;;;8.60;99.90;;;;;;5011438;28;20029;-59
2023/01/13 08:50:53;;;;;;;16.97;2.30;;;8.60;99.90;;;;;;5011484;28;20041;-61
2023/01/13 08:53:19;;;;;;;14.10;2.37;;;8.60;99.90;;;;;;5011258;28;20034;-59
2023/01/13 08:55:45;;;;;;;18.93;3.03;;;8.60;99.90;;;;;;5011640;28;20104;-60
2023/01/13 08:58:11;;;;;;;15.27;3.33;;;8.60;99.90;;;;;;5011146;28;20474;-59
2023/01/13 09:00:37;;;;;;;24.47;8.57;;;8.60;99.90;;;;;;5011452;28;20041;-59
2023/01/13 09:03:03;;;;;;;16.73;3.13;;;8.70;99.90;;;;;;5011732;28;20034;-59
2023/01/13 09:05:29;;;;;;;16.53;2.67;;;8.70;99.90;;;;;;5010972;28;20253;-59
2023/01/13 09:07:55;;;;;;;15.37;2.50;;;8.70;99.90;;;;;;5011153;28;20040;-59
2023/01/13 09:10:21;;;;;;;20.10;3.20;;;8.70;99.90;;;;;;5011120;28;20379;-60
2023/01/13 09:18:04;;;;;;;12.03;1.80;;;8.80;99.90;;;;;;5008654;28;20096;-62
2023/01/13 09:20:29;;;;;;;18.93;3.10;;;8.70;99.90;;;;;;5010638;28;20030;-62
2023/01/13 09:22:55;;;;;;;14.70;2.50;;;8.70;99.90;;;;;;5011330;28;20479;-62
2023/01/13 09:25:21;;;;;;;17.23;2.43;;;8.70;99.90;;;;;;5010769;28;20036;-61
2023/01/13 09:27:46;;;;;;;16.33;2.47;;;8.70;99.90;;;;;;4993335;28;20049;-62
2023/01/13 09:30:12;;;;;;;15.63;2.10;;;8.70;99.90;;;;;;5010449;28;20037;-62
2023/01/13 09:32:38;;;;;;;14.53;2.27;;;8.70;99.90;;;;;;5010396;28;20433;-61
2023/01/13 09:35:06;;;;;;;15.80;2.53;;;8.80;99.90;;;;;;5010411;28;20026;-62
2023/01/13 09:37:38;;;;;;;17.60;2.53;;;8.80;99.90;;;;;;5010432;28;20033;-62
2023/01/13 09:40:08;;;;;;;16.43;2.77;;;8.90;99.90;;;;;;5010700;28;20479;-62
2023/01/13 09:45:45;;;;;;;19.37;2.47;;;8.90;99.90;;;;;;5010281;28;20044;-61
2023/01/13 09:48:31;;;;;;;20.93;3.40;;;8.90;99.90;;;;;;5010582;28;20053;-62
2023/01/13 09:51:15;;;;;;;19.83;2.53;;;9.00;99.90;;;;;;4993146;28;20033;-62
2023/01/13 09:53:54;;;;;;;21.10;2.97;;;9.00;99.90;;;;;;5010482;28;20077;-62
2023/01/13 09:56:22;;;;;;;20.33;2.30;;;9.10;99.90;;;;;;5010411;28;20088;-62
2023/01/13 09:58:47;;;;;;;14.70;2.80;;;9.20;99.90;;;;;;5010570;28;20030;-62
2023/01/13 10:01:19;;;;;;;16.33;2.50;;;9.40;99.90;;;;;;5010677;28;20497;-62
2023/01/13 10:03:47;;;;;;;20.80;3.47;;;9.90;99.90;;;;;;5010698;28;20030;-61
2023/01/13 10:06:42;;;;;;;16.80;2.50;;;10.10;99.90;;;;;;4992789;28;20105;-61
2023/01/13 10:09:16;;;;;;;19.30;2.60;;;10.40;99.90;;;;;;4989250;28;20125;-62
2023/01/13 10:14:46;;;;;;;17.47;2.70;;;10.40;99.90;;;;;;5010174;28;20026;-62
2023/01/13 10:17:41;;;;;;;19.20;2.67;;;10.20;99.90;;;;;;5010029;28;20026;-62
2023/01/13 10:20:32;;;;;;;17.43;2.80;;;10.20;99.90;;;;;;5010445;28;20073;-62
2023/01/13 10:23:19;;;;;;;14.33;3.00;;;10.10;99.90;;;;;;5010389;28;20040;-61
2023/01/13 10:25:51;;;;;;;19.30;2.67;;;10.00;99.90;;;;;;5010246;28;20464;-63
2023/01/13 10:28:22;;;;;;;17.20;2.80;;;10.20;99.90;;;;;;5010224;28;20046;-62
2023/01/13 10:30:48;;;;;;;24.93;3.47;;;10.30;99.90;;;;;;5010375;28;20423;-62
2023/01/13 10:33:24;;;;;;;20.90;3.27;;;10.40;99.90;;;;;;5010270;28;20077;-62
2023/01/13 10:35:54;;;;;;;17.87;2.80;;;10.50;99.90;;;;;;5010372;28;20402;-62
2023/01/13 10:38:43;;;;;;;19.53;2.67;;;10.60;99.90;;;;;;5009968;28;20273;-62
2023/01/13 10:41:14;;;;;;;16.73;2.78;;;10.60;99.90;;;;;;5010400;28;20033;-62
2023/01/13 10:44:04;;;;;;;20.90;2.83;;;10.70;99.90;;;;;;5012920;28;20026;-62
2023/01/13 10:46:48;;;;;;;15.10;2.43;;;10.80;99.90;;;;;;5001709;28;20030;-62
2023/01/13 10:49:26;;;;;;;20.57;3.17;;;10.70;99.90;;;;;;5013718;28;20022;-62
2023/01/13 10:51:52;;;;;;;22.67;3.37;;;10.50;99.90;;;;;;5013843;28;20072;-62
2023/01/13 10:54:19;;;;;;;19.67;2.80;;;10.40;99.90;;;;;;5013374;28;20053;-62
2023/01/13 10:56:45;;;;;;;21.50;3.00;;;10.40;99.90;;;;;;5013280;28;20030;-62
2023/01/13 10:59:16;;;;;;;19.73;3.30;;;10.30;99.90;;;;;;5013522;28;20359;-61
2023/01/13 11:02:01;;;;;;;19.20;3.07;;;10.30;99.90;;;;;;5013635;28;20030;-62
2023/01/13 11:04:39;;;;;;;19.67;2.90;;;10.20;99.90;;;;;;5012777;28;20095;-62
2023/01/13 11:07:19;;;;;;;21.07;2.60;;;10.10;99.90;;;;;;5013501;28;20049;-61
2023/01/13 11:09:45;;;;;;;17.53;2.87;;;10.10;99.90;;;;;;5013582;28;20114;-62
2023/01/13 11:12:33;;;;;;;15.30;2.83;;;9.90;99.90;;;;;;5013411;28;20156;-61
2023/01/13 11:15:03;;;;;;;19.13;3.40;;;9.70;99.90;;;;;;5013052;28;20038;-61
2023/01/13 11:17:45;;;;;;;18.97;3.00;;;9.50;99.90;;;;;;5012755;28;20095;-62
2023/01/13 11:20:10;;;;;;;23.40;4.27;;;9.30;99.90;;;;;;5013039;28;20022;-61
2023/01/13 11:22:42;;;;;;;20.43;3.20;;;9.10;99.90;;;;;;5013141;28;20449;-62
2023/01/13 11:25:15;;;;;;;18.07;3.37;;;9.20;99.90;;;;;;5012955;28;20436;-62
2023/01/13 11:27:46;;;;;;;15.50;2.77;;;9.20;99.90;;;;;;5012707;28;20046;-61
2023/01/13 11:30:40;;;;;;;20.23;3.10;;;9.20;99.90;;;;;;5013214;28;20068;-61
2023/01/13 11:33:14;;;;;;;19.87;3.13;;;9.30;99.90;;;;;;5012996;28;20040;-61
2023/01/13 11:36:13;;;;;;;18.00;3.40;;;9.20;99.90;;;;;;5012697;28;20025;-61
2023/01/13 11:38:55;;;;;;;20.70;3.13;;;9.30;99.90;;;;;;5012494;28;20049;-61
2023/01/13 11:41:34;;;;;;;20.67;3.23;;;9.40;99.90;;;;;;5013240;28;20392;-62
2023/01/13 11:44:05;;;;;;;17.40;2.93;;;9.50;99.90;;;;;;5012626;28;20490;-63
2023/01/13 11:46:31;;;;;;;21.30;3.03;;;9.50;99.90;;;;;;5012356;28;20045;-62
2023/01/13 11:48:58;;;;;;;20.47;2.30;;;9.50;99.90;;;;;;5012622;28;20124;-62
2023/01/13 11:51:41;;;;;;;14.47;2.83;;;9.40;99.90;;;;;;5012908;28;20026;-61
2023/01/13 11:54:23;;;;;;;19.27;3.97;;;9.30;99.90;;;;;;5011594;28;20034;-61
2023/01/13 11:57:16;;;;;;;20.37;3.00;;;9.20;99.90;;;;;;5012188;28;20117;-61
2023/01/13 12:00:14;;;;;;;22.13;3.80;;;9.20;99.90;;;;;;5012385;28;20533;-61
2023/01/13 12:03:14;;;;;;;23.33;3.27;;;9.10;99.90;;;;;;4972867;28;20046;-61
2023/01/13 12:05:47;;;;;;;22.87;2.90;;;9.00;99.90;;;;;;5011891;28;20034;-61
2023/01/13 12:08:24;;;;;;;13.17;2.80;;;9.10;99.90;;;;;;5012246;28;20474;-61
2023/01/13 12:11:12;;;;;;;16.23;2.53;;;9.00;99.90;;;;;;5012307;28;20030;-60
2023/01/13 12:13:58;;;;;;;23.23;3.40;;;8.90;99.90;;;;;;5011899;28;20396;-60
2023/01/13 12:16:29;;;;;;;15.47;2.90;;;8.70;99.90;;;;;;5011762;28;20056;-61
2023/01/13 12:19:26;;;;;;;16.10;2.70;;;8.60;99.90;;;;;;5012058;28;20034;-61
2023/01/13 12:22:05;;;;;;;17.77;2.90;;;8.50;99.90;;;;;;5011961;28;20109;-61
2023/01/13 12:24:44;;;;;;;19.05;2.80;;;8.40;99.90;;;;;;5011922;28;20022;-61
2023/01/13 12:27:31;;;;;;;15.85;2.70;;;8.40;99.90;;;;;;5011694;28;20053;-61
2023/01/13 12:30:00;;;;;;;10.60;1.77;;;8.40;99.90;;;;;;5011748;28;20065;-61
2023/01/13 12:32:32;;;;;;;;;;;8.40;99.90;;;;;;5012338;28;20105;-61
2023/01/13 12:35:29;;;;;;;8.17;1.50;;;8.40;99.90;;;;;;5011637;28;19909;-61
2023/01/13 12:38:10;;;;;;;12.60;1.60;;;8.40;99.90;;;;;;5011711;28;20041;-62
2023/01/13 12:40:45;;;;;;;8.37;1.90;;;8.50;99.90;;;;;;5011809;28;20021;-61
2023/01/13 12:46:17;;;;;;;8.60;1.77;;;8.90;99.90;;;;;;5011531;28;20034;-62
2023/01/13 12:48:53;;;;;;;11.93;2.30;;;9.00;99.90;;;;;;5011505;28;20041;-62
2023/01/13 12:51:23;;;;;;;10.83;1.97;;;9.00;99.90;;;;;;5011558;28;20480;-61
2023/01/13 12:53:50;;;;;;;14.83;2.63;;;8.90;99.90;;;;;;5011478;28;20360;-62
2023/01/13 12:56:38;;;;;;;15.83;2.50;;;8.90;99.90;;;;;;5011464;28;20434;-62
2023/01/13 12:59:17;;;;;;;13.67;2.73;;;8.90;99.90;;;;;;5011275;28;20038;-60
2023/01/13 13:01:45;;;;;;;17.02;3.03;;;8.80;99.90;;;;;;5011329;28;20080;-62
2023/01/13 13:04:16;;;;;;;14.87;2.13;;;8.80;99.90;;;;;;5011046;28;20113;-60
2023/01/13 13:07:02;;;;;;;16.77;2.90;;;8.70;99.90;;;;;;5010868;28;20044;-60
2023/01/13 13:09:39;;;;;;;18.50;2.90;;;8.80;99.90;;;;;;5011236;28;20027;-61
2023/01/13 13:15:23;;;;;;;15.27;2.22;;;8.90;99.90;;;;;;5011101;28;20041;-61
2023/01/13 13:17:58;;;;;;;16.23;2.83;;;8.90;99.90;;;;;;5010609;28;20041;-60
2023/01/13 13:20:58;;;;;;;15.53;2.83;;;9.00;99.90;;;;;;5011072;28;20041;-60
2023/01/13 13:23:35;;;;;;;16.13;2.70;;;8.90;99.90;;;;;;5010810;28;20475;-62
2023/01/13 13:26:38;;;;;;;15.03;2.53;;;9.00;99.90;;;;;;5010882;28;20036;-60
2023/01/13 13:29:34;;;;;;;14.17;2.40;;;8.90;99.90;;;;;;5010879;28;20041;-61
2023/01/13 13:32:29;;;;;;;18.67;2.90;;;8.90;99.90;;;;;;4993289;28;20030;-62
2023/01/13 13:35:12;;;;;;;15.33;2.70;;;8.90;99.90;;;;;;5010833;28;20045;-60
2023/01/13 13:46:48;;;;;;;18.83;2.60;;;8.90;99.90;;;;;;5010480;28;20101;-61
2023/01/13 13:49:32;;;;;;;19.10;2.88;;;8.80;99.90;;;;;;5010687;28;20059;-61
2023/01/13 13:52:50;;;;;;;18.67;3.53;;;8.80;99.90;;;;;;5010785;28;20034;-60
2023/01/13 13:55:24;;;;;;;17.30;2.47;;;8.80;99.90;;;;;;4990461;28;20446;-61
2023/01/13 13:57:53;;;;;;;20.43;2.80;;;8.70;99.90;;;;;;5010136;28;20080;-61
2023/01/13 14:00:30;;;;;;;20.00;2.70;;;8.70;99.90;;;;;;5010514;28;20072;-61
2023/01/13 14:03:19;;;;;;;19.03;3.50;;;8.60;99.90;;;;;;5010711;28;20026;-61
2023/01/13 14:05:53;;;;;;;;;;;8.50;99.90;;;;;;5011143;28;20033;-61
2023/01/13 14:08:20;;;;;;;16.63;3.17;;;8.40;99.90;;;;;;5010294;28;19910;-61
2023/01/13 14:10:45;;;;;;;24.73;4.43;;;8.40;99.90;;;;;;5010603;28;20172;-60